sensor_id;sensor_type;location;lat;lon;timestamp;pressure;altitude;pressure_sealevel;temperature;humidity
34185;BME280;20454;48.100;11.776;2022-07-01T00:01:43;95229.44;;;18.43;92.53
34185;BME280;20454;48.100;11.776;2022-07-01T00:04:10;95234.28;;;18.43;91.58
34185;BME280;20454;48.100;11.776;2022-07-01T00:06:37;95237.50;;;18.45;91.52
34185;BME280;20454;48.100;11.776;2022-07-01T00:09:03;95236.75;;;18.48;91.78
34185;BME280;20454;48.100;11.776;2022-07-01T00:11:31;95240.88;;;18.54;92.16
34185;BME280;20454;48.100;11.776;2022-07-01T00:13:57;95249.00;;;18.59;91.63
34185;BME280;20454;48.100;11.776;2022-07-01T00:16:23;95243.84;;;18.64;91.72
34185;BME280;20454;48.100;11.776;2022-07-01T00:18:48;95252.72;;;18.66;91.61
34185;BME280;20454;48.100;11.776;2022-07-01T00:21:14;95259.25;;;18.70;91.45
34185;BME280;20454;48.100;11.776;2022-07-01T00:23:41;95259.31;;;18.74;92.03
34185;BME280;20454;48.100;11.776;2022-07-01T00:26:07;95254.44;;;18.71;92.34
34185;BME280;20454;48.100;11.776;2022-07-01T00:28:33;95277.53;;;18.80;92.25
34185;BME280;20454;48.100;11.776;2022-07-01T00:30:59;95276.09;;;18.93;92.34
34185;BME280;20454;48.100;11.776;2022-07-01T00:33:24;95284.94;;;18.91;91.85
34185;BME280;20454;48.100;11.776;2022-07-01T00:35:51;95291.78;;;18.90;91.84
34185;BME280;20454;48.100;11.776;2022-07-01T00:38:18;95289.84;;;18.94;92.21
34185;BME280;20454;48.100;11.776;2022-07-01T00:40:43;95286.19;;;18.94;91.90
34185;BME280;20454;48.100;11.776;2022-07-01T00:43:09;95291.00;;;18.93;92.00
34185;BME280;20454;48.100;11.776;2022-07-01T00:45:35;95299.19;;;19.02;91.69
34185;BME280;20454;48.100;11.776;2022-07-01T00:48:01;95313.41;;;19.09;90.49
34185;BME280;20454;48.100;11.776;2022-07-01T00:50:27;95310.56;;;19.09;90.44
34185;BME280;20454;48.100;11.776;2022-07-01T00:52:53;95311.41;;;19.09;90.02
34185;BME280;20454;48.100;11.776;2022-07-01T00:55:19;95306.56;;;19.10;89.42
34185;BME280;20454;48.100;11.776;2022-07-01T00:57:45;95314.66;;;19.11;88.75
34185;BME280;20454;48.100;11.776;2022-07-01T01:00:13;95311.94;;;19.18;88.23
34185;BME280;20454;48.100;11.776;2022-07-01T01:02:40;95305.03;;;19.16;87.12
34185;BME280;20454;48.100;11.776;2022-07-01T01:05:08;95315.19;;;19.20;87.01
34185;BME280;20454;48.100;11.776;2022-07-01T01:07:35;95307.56;;;19.21;85.71
34185;BME280;20454;48.100;11.776;2022-07-01T01:10:02;95309.72;;;19.31;82.36
34185;BME280;20454;48.100;11.776;2022-07-01T01:12:29;95312.47;;;19.27;81.53
34185;BME280;20454;48.100;11.776;2022-07-01T01:14:56;95310.50;;;19.28;80.69
34185;BME280;20454;48.100;11.776;2022-07-01T01:17:23;95307.28;;;19.29;80.02
34185;BME280;20454;48.100;11.776;2022-07-01T01:19:50;95308.09;;;19.30;77.64
34185;BME280;20454;48.100;11.776;2022-07-01T01:22:17;95313.72;;;19.30;76.94
34185;BME280;20454;48.100;11.776;2022-07-01T01:24:47;95313.34;;;19.31;77.76
34185;BME280;20454;48.100;11.776;2022-07-01T01:27:13;95308.91;;;19.30;76.06
34185;BME280;20454;48.100;11.776;2022-07-01T01:29:39;95306.47;;;19.29;75.40
34185;BME280;20454;48.100;11.776;2022-07-01T01:32:07;95313.69;;;19.26;74.60
34185;BME280;20454;48.100;11.776;2022-07-01T01:34:35;95299.94;;;19.25;74.96
34185;BME280;20454;48.100;11.776;2022-07-01T01:37:03;95308.41;;;19.25;74.99
34185;BME280;20454;48.100;11.776;2022-07-01T01:39:29;95312.09;;;19.29;73.31
34185;BME280;20454;48.100;11.776;2022-07-01T01:41:55;95326.22;;;19.29;73.77
34185;BME280;20454;48.100;11.776;2022-07-01T01:44:21;95317.69;;;19.25;74.19
34185;BME280;20454;48.100;11.776;2022-07-01T01:46:47;95308.03;;;19.26;74.13
34185;BME280;20454;48.100;11.776;2022-07-01T01:49:13;95292.31;;;19.25;74.07
34185;BME280;20454;48.100;11.776;2022-07-01T01:51:39;95291.44;;;19.21;74.13
34185;BME280;20454;48.100;11.776;2022-07-01T01:54:04;95283.28;;;19.16;74.52
34185;BME280;20454;48.100;11.776;2022-07-01T01:56:31;95282.47;;;19.16;74.36
34185;BME280;20454;48.100;11.776;2022-07-01T01:58:58;95285.56;;;19.07;74.89
34185;BME280;20454;48.100;11.776;2022-07-01T04:31:09;95356.13;;;18.85;81.00
34185;BME280;20454;48.100;11.776;2022-07-01T04:33:35;95383.31;;;18.96;81.28
34185;BME280;20454;48.100;11.776;2022-07-01T04:36:01;95391.00;;;18.99;81.03
34185;BME280;20454;48.100;11.776;2022-07-01T04:38:27;95377.31;;;18.98;81.36
34185;BME280;20454;48.100;11.776;2022-07-01T04:40:52;95375.34;;;19.02;81.63
34185;BME280;20454;48.100;11.776;2022-07-01T04:43:37;95369.28;;;19.00;81.27
34185;BME280;20454;48.100;11.776;2022-07-01T04:46:02;95378.97;;;19.02;81.35
34185;BME280;20454;48.100;11.776;2022-07-01T04:48:28;95376.53;;;19.01;81.79
34185;BME280;20454;48.100;11.776;2022-07-01T04:50:54;95381.63;;;18.92;81.85
34185;BME280;20454;48.100;11.776;2022-07-01T04:53:20;95388.13;;;18.96;82.16
34185;BME280;20454;48.100;11.776;2022-07-01T04:55:45;95374.84;;;18.96;82.04
34185;BME280;20454;48.100;11.776;2022-07-01T04:58:13;95336.28;;;18.78;82.43
34185;BME280;20454;48.100;11.776;2022-07-01T05:00:39;95369.75;;;19.05;82.27
34185;BME280;20454;48.100;11.776;2022-07-01T05:03:04;95363.38;;;19.08;81.70
34185;BME280;20454;48.100;11.776;2022-07-01T05:05:30;95363.47;;;19.15;82.00
34185;BME280;20454;48.100;11.776;2022-07-01T05:07:56;95360.34;;;19.20;81.88
34185;BME280;20454;48.100;11.776;2022-07-01T05:10:21;95360.44;;;19.27;81.80
34185;BME280;20454;48.100;11.776;2022-07-01T05:12:49;95363.38;;;19.34;80.88
34185;BME280;20454;48.100;11.776;2022-07-01T05:15:15;95367.91;;;19.42;80.68
34185;BME280;20454;48.100;11.776;2022-07-01T05:17:40;95370.03;;;19.49;79.94
34185;BME280;20454;48.100;11.776;2022-07-01T05:20:25;95346.72;;;19.55;79.07
34185;BME280;20454;48.100;11.776;2022-07-01T05:23:16;95354.97;;;19.67;79.38
34185;BME280;20454;48.100;11.776;2022-07-01T05:25:42;95363.84;;;19.69;78.74
34185;BME280;20454;48.100;11.776;2022-07-01T05:28:08;95370.69;;;19.68;78.11
34185;BME280;20454;48.100;11.776;2022-07-01T05:30:34;95374.25;;;19.62;77.24
34185;BME280;20454;48.100;11.776;2022-07-01T05:33:00;95374.22;;;19.58;78.38
34185;BME280;20454;48.100;11.776;2022-07-01T05:35:25;95387.44;;;19.54;79.28
34185;BME280;20454;48.100;11.776;2022-07-01T05:37:51;95379.34;;;19.53;80.15
34185;BME280;20454;48.100;11.776;2022-07-01T05:40:17;95375.78;;;19.56;80.07
34185;BME280;20454;48.100;11.776;2022-07-01T05:42:43;95362.50;;;19.60;79.83
34185;BME280;20454;48.100;11.776;2022-07-01T05:45:09;95363.81;;;19.66;79.26
34185;BME280;20454;48.100;11.776;2022-07-01T05:47:35;95363.81;;;19.66;79.97
34185;BME280;20454;48.100;11.776;2022-07-01T05:50:00;95373.25;;;19.77;79.85
34185;BME280;20454;48.100;11.776;2022-07-01T05:52:26;95386.53;;;19.76;80.25
34185;BME280;20454;48.100;11.776;2022-07-01T05:54:52;95394.63;;;19.78;79.54
34185;BME280;20454;48.100;11.776;2022-07-01T05:57:18;95395.88;;;19.80;78.23
34185;BME280;20454;48.100;11.776;2022-07-01T05:59:43;95403.25;;;19.88;78.08
34185;BME280;20454;48.100;11.776;2022-07-01T06:02:09;95420.69;;;19.97;77.84
34185;BME280;20454;48.100;11.776;2022-07-01T06:04:35;95417.91;;;20.01;76.64
34185;BME280;20454;48.100;11.776;2022-07-01T06:07:00;95432.88;;;20.01;75.43
34185;BME280;20454;48.100;11.776;2022-07-01T06:09:26;95428.84;;;20.02;75.59
34185;BME280;20454;48.100;11.776;2022-07-01T06:11:52;95426.13;;;20.09;77.06
34185;BME280;20454;48.100;11.776;2022-07-01T06:14:18;95420.91;;;20.11;77.46
34185;BME280;20454;48.100;11.776;2022-07-01T06:16:44;95429.47;;;20.18;77.54
34185;BME280;20454;48.100;11.776;2022-07-01T06:19:09;95446.06;;;20.20;77.04
34185;BME280;20454;48.100;11.776;2022-07-01T06:21:35;95449.72;;;20.20;76.35
34185;BME280;20454;48.100;11.776;2022-07-01T06:24:01;95447.63;;;20.17;75.62
34185;BME280;20454;48.100;11.776;2022-07-01T06:26:26;95446.94;;;20.24;75.18
34185;BME280;20454;48.100;11.776;2022-07-01T06:28:52;95446.97;;;20.27;75.46
34185;BME280;20454;48.100;11.776;2022-07-01T06:31:18;95451.13;;;20.37;75.86
34185;BME280;20454;48.100;11.776;2022-07-01T06:33:44;95456.44;;;20.45;75.97
34185;BME280;20454;48.100;11.776;2022-07-01T06:36:10;95477.19;;;20.56;74.28
34185;BME280;20454;48.100;11.776;2022-07-01T06:38:35;95470.53;;;20.74;72.33
34185;BME280;20454;48.100;11.776;2022-07-01T06:41:01;95464.41;;;21.02;72.16
34185;BME280;20454;48.100;11.776;2022-07-01T06:43:45;95468.97;;;21.17;68.46
34185;BME280;20454;48.100;11.776;2022-07-01T06:46:11;95471.44;;;21.22;67.44
34185;BME280;20454;48.100;11.776;2022-07-01T06:48:37;95467.44;;;21.26;67.27
34185;BME280;20454;48.100;11.776;2022-07-01T06:51:03;95465.47;;;21.34;66.33
34185;BME280;20454;48.100;11.776;2022-07-01T06:53:29;95461.50;;;21.42;65.84
34185;BME280;20454;48.100;11.776;2022-07-01T06:55:56;95454.75;;;21.57;66.05
34185;BME280;20454;48.100;11.776;2022-07-01T06:58:21;95457.75;;;21.74;65.61
34185;BME280;20454;48.100;11.776;2022-07-01T07:00:47;95457.03;;;21.88;65.44
34185;BME280;20454;48.100;11.776;2022-07-01T07:03:13;95448.50;;;21.88;64.87
34185;BME280;20454;48.100;11.776;2022-07-01T07:05:39;95460.66;;;21.85;66.25
34185;BME280;20454;48.100;11.776;2022-07-01T07:08:04;95467.06;;;21.78;65.91
34185;BME280;20454;48.100;11.776;2022-07-01T07:10:30;95462.59;;;21.74;65.59
34185;BME280;20454;48.100;11.776;2022-07-01T07:12:56;95460.91;;;21.66;66.31
34185;BME280;20454;48.100;11.776;2022-07-01T07:15:22;95471.34;;;21.58;66.29
34185;BME280;20454;48.100;11.776;2022-07-01T07:17:48;95461.56;;;21.49;67.25
34185;BME280;20454;48.100;11.776;2022-07-01T07:20:13;95474.09;;;21.48;67.79
34185;BME280;20454;48.100;11.776;2022-07-01T07:22:39;95469.50;;;21.29;68.42
34185;BME280;20454;48.100;11.776;2022-07-01T07:25:05;95469.34;;;21.12;69.03
34185;BME280;20454;48.100;11.776;2022-07-01T07:27:31;95477.69;;;20.98;69.34
34185;BME280;20454;48.100;11.776;2022-07-01T07:29:57;95474.63;;;20.80;69.08
34185;BME280;20454;48.100;11.776;2022-07-01T07:32:23;95451.91;;;20.70;70.02
34185;BME280;20454;48.100;11.776;2022-07-01T07:34:48;95461.63;;;20.72;69.81
34185;BME280;20454;48.100;11.776;2022-07-01T07:37:14;95470.41;;;20.64;69.74
34185;BME280;20454;48.100;11.776;2022-07-01T07:39:40;95464.41;;;20.69;70.05
34185;BME280;20454;48.100;11.776;2022-07-01T07:42:06;95474.59;;;20.77;69.87
34185;BME280;20454;48.100;11.776;2022-07-01T07:44:32;95469.03;;;20.84;69.96
34185;BME280;20454;48.100;11.776;2022-07-01T07:46:58;95467.56;;;20.97;70.10
34185;BME280;20454;48.100;11.776;2022-07-01T07:49:24;95459.22;;;21.11;68.40
34185;BME280;20454;48.100;11.776;2022-07-01T07:51:51;95476.28;;;21.21;68.14
34185;BME280;20454;48.100;11.776;2022-07-01T07:54:18;95457.25;;;21.18;67.14
34185;BME280;20454;48.100;11.776;2022-07-01T07:56:44;95478.47;;;21.42;66.88
34185;BME280;20454;48.100;11.776;2022-07-01T07:59:09;95472.25;;;21.66;65.58
34185;BME280;20454;48.100;11.776;2022-07-01T08:01:35;95465.91;;;21.86;65.52
34185;BME280;20454;48.100;11.776;2022-07-01T08:04:01;95475.34;;;22.08;65.10
34185;BME280;20454;48.100;11.776;2022-07-01T08:06:27;95465.31;;;22.21;64.66
34185;BME280;20454;48.100;11.776;2022-07-01T08:08:54;95471.06;;;22.35;63.57
34185;BME280;20454;48.100;11.776;2022-07-01T08:11:20;95486.84;;;22.36;63.68
34185;BME280;20454;48.100;11.776;2022-07-01T08:13:46;95491.28;;;22.33;63.29
34185;BME280;20454;48.100;11.776;2022-07-01T08:16:12;95499.75;;;22.26;63.95
34185;BME280;20454;48.100;11.776;2022-07-01T08:18:38;95503.72;;;22.11;65.21
34185;BME280;20454;48.100;11.776;2022-07-01T08:21:04;95517.34;;;21.88;66.55
34185;BME280;20454;48.100;11.776;2022-07-01T08:23:30;95521.22;;;21.70;67.18
34185;BME280;20454;48.100;11.776;2022-07-01T08:25:55;95508.56;;;21.57;68.16
34185;BME280;20454;48.100;11.776;2022-07-01T08:28:21;95524.16;;;21.37;68.96
34185;BME280;20454;48.100;11.776;2022-07-01T08:30:47;95536.41;;;21.11;70.13
34185;BME280;20454;48.100;11.776;2022-07-01T08:33:13;95537.84;;;20.91;70.82
34185;BME280;20454;48.100;11.776;2022-07-01T08:35:39;95540.72;;;20.65;71.78
34185;BME280;20454;48.100;11.776;2022-07-01T08:38:06;95554.06;;;20.36;73.37
34185;BME280;20454;48.100;11.776;2022-07-01T08:40:32;95541.13;;;20.05;73.55
34185;BME280;20454;48.100;11.776;2022-07-01T08:43:01;95571.28;;;19.75;75.16
34185;BME280;20454;48.100;11.776;2022-07-01T08:45:31;95592.66;;;19.50;75.67
34185;BME280;20454;48.100;11.776;2022-07-01T08:47:59;95599.91;;;19.10;75.29
34185;BME280;20454;48.100;11.776;2022-07-01T08:50:31;95605.38;;;18.80;74.50
34185;BME280;20454;48.100;11.776;2022-07-01T08:52:59;95628.66;;;18.39;75.05
34185;BME280;20454;48.100;11.776;2022-07-01T08:55:26;95631.91;;;17.91;76.84
34185;BME280;20454;48.100;11.776;2022-07-01T08:57:52;95641.19;;;17.61;79.14
34185;BME280;20454;48.100;11.776;2022-07-01T09:00:18;95647.91;;;17.41;80.22
34185;BME280;20454;48.100;11.776;2022-07-01T09:03:02;95653.72;;;17.20;81.35
34185;BME280;20454;48.100;11.776;2022-07-01T09:05:31;95642.72;;;17.00;79.10
34185;BME280;20454;48.100;11.776;2022-07-01T09:08:15;95659.34;;;16.77;81.20
34185;BME280;20454;48.100;11.776;2022-07-01T09:10:41;95661.63;;;16.60;79.98
34185;BME280;20454;48.100;11.776;2022-07-01T09:13:09;95652.31;;;16.44;78.83
34185;BME280;20454;48.100;11.776;2022-07-01T09:15:37;95653.94;;;16.33;78.93
34185;BME280;20454;48.100;11.776;2022-07-01T09:18:14;95658.88;;;16.36;79.61
34185;BME280;20454;48.100;11.776;2022-07-01T09:20:45;95663.00;;;16.26;78.91
34185;BME280;20454;48.100;11.776;2022-07-01T09:23:17;95653.50;;;16.19;78.53
34185;BME280;20454;48.100;11.776;2022-07-01T09:28:10;95662.06;;;16.10;79.13
34185;BME280;20454;48.100;11.776;2022-07-01T09:30:43;95659.13;;;16.07;78.74
34185;BME280;20454;48.100;11.776;2022-07-01T09:33:14;95666.03;;;16.09;78.11
34185;BME280;20454;48.100;11.776;2022-07-01T09:35:42;95659.41;;;16.02;77.96
34185;BME280;20454;48.100;11.776;2022-07-01T09:38:13;95668.28;;;16.04;78.16
34185;BME280;20454;48.100;11.776;2022-07-01T09:41:00;95679.97;;;16.06;78.18
34185;BME280;20454;48.100;11.776;2022-07-01T09:43:28;95686.63;;;16.13;77.88
34185;BME280;20454;48.100;11.776;2022-07-01T09:46:10;95690.63;;;16.12;77.75
34185;BME280;20454;48.100;11.776;2022-07-01T09:51:07;95687.53;;;16.17;79.93
34185;BME280;20454;48.100;11.776;2022-07-01T09:53:34;95693.03;;;16.26;81.02
34185;BME280;20454;48.100;11.776;2022-07-01T09:56:01;95678.09;;;16.22;82.04
34185;BME280;20454;48.100;11.776;2022-07-01T09:58:27;95694.91;;;16.34;82.80
34185;BME280;20454;48.100;11.776;2022-07-01T10:00:54;95691.09;;;16.38;84.00
34185;BME280;20454;48.100;11.776;2022-07-01T10:03:22;95673.03;;;16.27;83.89
34185;BME280;20454;48.100;11.776;2022-07-01T10:05:56;95694.00;;;16.42;84.44
34185;BME280;20454;48.100;11.776;2022-07-01T10:15:02;95712.91;;;16.57;86.72
34185;BME280;20454;48.100;11.776;2022-07-01T10:17:31;95715.34;;;16.58;87.01
34185;BME280;20454;48.100;11.776;2022-07-01T10:20:15;95716.28;;;16.62;86.98
34185;BME280;20454;48.100;11.776;2022-07-01T10:22:42;95728.34;;;16.63;88.25
34185;BME280;20454;48.100;11.776;2022-07-01T10:25:41;95744.50;;;16.66;89.05
34185;BME280;20454;48.100;11.776;2022-07-01T10:31:04;95744.16;;;16.55;86.61
34185;BME280;20454;48.100;11.776;2022-07-01T10:36:11;95752.59;;;16.55;85.63
34185;BME280;20454;48.100;11.776;2022-07-01T10:41:42;95755.84;;;16.57;86.81
34185;BME280;20454;48.100;11.776;2022-07-01T10:44:11;95758.66;;;16.57;87.10
34185;BME280;20454;48.100;11.776;2022-07-01T10:46:45;95754.00;;;16.61;88.01
34185;BME280;20454;48.100;11.776;2022-07-01T10:52:13;95746.47;;;16.65;88.27
34185;BME280;20454;48.100;11.776;2022-07-01T10:59:51;95745.56;;;16.61;89.35
34185;BME280;20454;48.100;11.776;2022-07-01T11:02:21;95738.59;;;16.83;88.63
34185;BME280;20454;48.100;11.776;2022-07-01T11:04:48;95742.53;;;16.94;88.85
34185;BME280;20454;48.100;11.776;2022-07-01T11:07:15;95739.69;;;17.06;88.72
34185;BME280;20454;48.100;11.776;2022-07-01T11:09:41;95736.16;;;17.09;87.06
34185;BME280;20454;48.100;11.776;2022-07-01T11:12:08;95747.28;;;17.05;86.80
34185;BME280;20454;48.100;11.776;2022-07-01T11:14:39;95760.94;;;16.91;86.67
34185;BME280;20454;48.100;11.776;2022-07-01T11:17:07;95759.81;;;16.80;87.44
34185;BME280;20454;48.100;11.776;2022-07-01T11:19:33;95752.09;;;16.65;87.87
34185;BME280;20454;48.100;11.776;2022-07-01T11:21:59;95744.03;;;16.64;88.83
34185;BME280;20454;48.100;11.776;2022-07-01T11:24:25;95741.06;;;16.72;89.13
34185;BME280;20454;48.100;11.776;2022-07-01T11:26:59;95745.75;;;16.80;87.63
34185;BME280;20454;48.100;11.776;2022-07-01T11:29:28;95757.69;;;16.77;87.62
34185;BME280;20454;48.100;11.776;2022-07-01T11:31:54;95758.66;;;16.69;88.63
34185;BME280;20454;48.100;11.776;2022-07-01T11:34:21;95768.59;;;16.67;88.67
34185;BME280;20454;48.100;11.776;2022-07-01T11:36:48;95777.59;;;16.72;89.05
34185;BME280;20454;48.100;11.776;2022-07-01T11:39:33;95775.41;;;16.66;88.83
34185;BME280;20454;48.100;11.776;2022-07-01T11:42:04;95773.53;;;16.70;91.96
34185;BME280;20454;48.100;11.776;2022-07-01T11:44:40;95757.97;;;17.39;90.33
34185;BME280;20454;48.100;11.776;2022-07-01T11:47:10;95765.59;;;17.82;85.44
34185;BME280;20454;48.100;11.776;2022-07-01T11:49:48;95758.50;;;18.50;79.99
34185;BME280;20454;48.100;11.776;2022-07-01T11:52:18;95747.91;;;18.78;77.74
34185;BME280;20454;48.100;11.776;2022-07-01T11:54:54;95763.13;;;18.92;76.19
34185;BME280;20454;48.100;11.776;2022-07-01T11:57:26;95778.34;;;18.72;76.57
34185;BME280;20454;48.100;11.776;2022-07-01T11:59:55;95795.31;;;18.57;78.06
34185;BME280;20454;48.100;11.776;2022-07-01T12:02:23;95816.19;;;18.71;76.21
34185;BME280;20454;48.100;11.776;2022-07-01T12:04:51;95813.13;;;18.45;76.66
34185;BME280;20454;48.100;11.776;2022-07-01T12:07:20;95782.19;;;18.64;76.01
34185;BME280;20454;48.100;11.776;2022-07-01T12:09:47;95772.38;;;18.58;76.72
34185;BME280;20454;48.100;11.776;2022-07-01T12:12:18;95785.69;;;18.42;78.02
34185;BME280;20454;48.100;11.776;2022-07-01T12:15:13;95793.38;;;18.76;76.00
34185;BME280;20454;48.100;11.776;2022-07-01T12:17:39;95775.41;;;18.84;75.82
34185;BME280;20454;48.100;11.776;2022-07-01T12:20:06;95736.22;;;18.79;76.04
34185;BME280;20454;48.100;11.776;2022-07-01T12:22:32;95720.09;;;18.95;75.30
34185;BME280;20454;48.100;11.776;2022-07-01T12:25:10;95750.31;;;18.79;76.33
34185;BME280;20454;48.100;11.776;2022-07-01T12:27:38;95765.63;;;18.63;76.25
34185;BME280;20454;48.100;11.776;2022-07-01T12:30:06;95774.75;;;18.56;77.73
34185;BME280;20454;48.100;11.776;2022-07-01T12:32:37;95785.63;;;18.73;78.35
34185;BME280;20454;48.100;11.776;2022-07-01T12:35:06;95782.53;;;18.78;77.81
34185;BME280;20454;48.100;11.776;2022-07-01T12:37:55;95791.66;;;18.56;77.41
34185;BME280;20454;48.100;11.776;2022-07-01T12:40:25;95799.50;;;18.32;77.68
34185;BME280;20454;48.100;11.776;2022-07-01T12:42:53;95807.81;;;18.13;80.35
34185;BME280;20454;48.100;11.776;2022-07-01T12:45:25;95824.53;;;17.90;82.59
34185;BME280;20454;48.100;11.776;2022-07-01T12:48:00;95826.91;;;17.61;82.06
34185;BME280;20454;48.100;11.776;2022-07-01T12:50:29;95847.19;;;17.39;83.65
34185;BME280;20454;48.100;11.776;2022-07-01T12:57:58;95860.38;;;16.87;88.44
34185;BME280;20454;48.100;11.776;2022-07-01T13:00:29;95843.06;;;16.73;89.46
34185;BME280;20454;48.100;11.776;2022-07-01T13:02:58;95843.91;;;16.61;89.21
34185;BME280;20454;48.100;11.776;2022-07-01T13:05:24;95844.34;;;16.51;89.65
34185;BME280;20454;48.100;11.776;2022-07-01T13:07:51;95842.13;;;16.45;90.30
34185;BME280;20454;48.100;11.776;2022-07-01T13:10:18;95845.19;;;16.40;91.10
34185;BME280;20454;48.100;11.776;2022-07-01T13:12:44;95854.97;;;16.34;90.70
34185;BME280;20454;48.100;11.776;2022-07-01T13:15:15;95842.69;;;16.26;89.91
34185;BME280;20454;48.100;11.776;2022-07-01T13:17:44;95832.84;;;16.20;90.58
34185;BME280;20454;48.100;11.776;2022-07-01T13:20:12;95829.09;;;16.16;91.38
34185;BME280;20454;48.100;11.776;2022-07-01T13:22:38;95838.22;;;16.13;91.53
34185;BME280;20454;48.100;11.776;2022-07-01T13:25:04;95857.75;;;16.10;92.46
34185;BME280;20454;48.100;11.776;2022-07-01T13:27:30;95872.13;;;16.08;92.29
34185;BME280;20454;48.100;11.776;2022-07-01T13:29:56;95863.38;;;16.10;93.52
34185;BME280;20454;48.100;11.776;2022-07-01T13:32:23;95863.50;;;16.13;93.91
34185;BME280;20454;48.100;11.776;2022-07-01T13:34:50;95836.72;;;16.16;94.48
34185;BME280;20454;48.100;11.776;2022-07-01T13:37:16;95817.31;;;16.23;93.23
34185;BME280;20454;48.100;11.776;2022-07-01T13:39:42;95816.13;;;16.36;93.73
34185;BME280;20454;48.100;11.776;2022-07-01T13:42:09;95828.22;;;16.48;94.40
34185;BME280;20454;48.100;11.776;2022-07-01T13:44:34;95845.06;;;16.60;92.50
34185;BME280;20454;48.100;11.776;2022-07-01T13:47:01;95837.22;;;16.66;91.58
34185;BME280;20454;48.100;11.776;2022-07-01T13:49:36;95808.06;;;16.70;90.83
34185;BME280;20454;48.100;11.776;2022-07-01T13:52:02;95813.91;;;16.77;91.31
34185;BME280;20454;48.100;11.776;2022-07-01T13:54:28;95831.94;;;16.76;90.03
34185;BME280;20454;48.100;11.776;2022-07-01T13:56:53;95849.03;;;16.71;89.13
34185;BME280;20454;48.100;11.776;2022-07-01T13:59:19;95856.06;;;16.65;89.39
34185;BME280;20454;48.100;11.776;2022-07-01T14:01:45;95866.72;;;16.60;91.34
34185;BME280;20454;48.100;11.776;2022-07-01T14:04:11;95891.66;;;16.61;91.36
34185;BME280;20454;48.100;11.776;2022-07-01T14:06:37;95913.44;;;16.52;90.49
34185;BME280;20454;48.100;11.776;2022-07-01T14:09:03;95922.53;;;16.37;88.84
34185;BME280;20454;48.100;11.776;2022-07-01T14:11:29;95927.59;;;16.23;88.89
34185;BME280;20454;48.100;11.776;2022-07-01T14:13:55;95928.41;;;16.12;88.64
34185;BME280;20454;48.100;11.776;2022-07-01T14:16:21;95916.91;;;16.05;89.39
34185;BME280;20454;48.100;11.776;2022-07-01T14:18:46;95908.84;;;16.03;92.09
34185;BME280;20454;48.100;11.776;2022-07-01T14:21:13;95915.50;;;15.99;91.98
34185;BME280;20454;48.100;11.776;2022-07-01T14:23:39;95908.13;;;15.94;92.33
34185;BME280;20454;48.100;11.776;2022-07-01T14:26:05;95909.75;;;15.95;93.50
34185;BME280;20454;48.100;11.776;2022-07-01T14:28:31;95921.34;;;15.94;94.80
34185;BME280;20454;48.100;11.776;2022-07-01T14:30:56;95938.06;;;15.90;94.41
34185;BME280;20454;48.100;11.776;2022-07-01T14:33:22;95924.38;;;15.89;94.09
34185;BME280;20454;48.100;11.776;2022-07-01T14:35:48;95917.91;;;15.88;94.55
34185;BME280;20454;48.100;11.776;2022-07-01T14:38:16;95917.25;;;15.91;95.59
34185;BME280;20454;48.100;11.776;2022-07-01T14:40:42;95915.25;;;15.92;96.24
34185;BME280;20454;48.100;11.776;2022-07-01T14:43:08;95926.00;;;15.90;96.08
34185;BME280;20454;48.100;11.776;2022-07-01T14:45:34;95920.72;;;15.88;95.77
34185;BME280;20454;48.100;11.776;2022-07-01T14:48:00;95919.56;;;15.89;96.01
34185;BME280;20454;48.100;11.776;2022-07-01T14:50:26;95922.84;;;15.91;95.28
34185;BME280;20454;48.100;11.776;2022-07-01T14:52:51;95929.41;;;15.95;95.00
34185;BME280;20454;48.100;11.776;2022-07-01T14:55:17;95910.50;;;16.04;95.08
34185;BME280;20454;48.100;11.776;2022-07-01T14:57:43;95901.16;;;16.12;95.13
34185;BME280;20454;48.100;11.776;2022-07-01T15:00:10;95874.63;;;16.22;94.99
34185;BME280;20454;48.100;11.776;2022-07-01T15:02:37;95871.63;;;16.39;94.25
34185;BME280;20454;48.100;11.776;2022-07-01T15:05:04;95838.50;;;16.68;93.47
34185;BME280;20454;48.100;11.776;2022-07-01T15:07:30;95828.81;;;17.05;92.65
34185;BME280;20454;48.100;11.776;2022-07-01T15:09:55;95841.41;;;17.35;88.52
34185;BME280;20454;48.100;11.776;2022-07-01T15:12:22;95834.06;;;17.58;86.43
34185;BME280;20454;48.100;11.776;2022-07-01T15:14:48;95846.91;;;17.71;86.25
34185;BME280;20454;48.100;11.776;2022-07-01T15:17:14;95881.88;;;17.70;86.28
34185;BME280;20454;48.100;11.776;2022-07-01T15:19:40;95930.81;;;17.54;84.05
34185;BME280;20454;48.100;11.776;2022-07-01T15:22:07;95938.09;;;17.31;85.78
34185;BME280;20454;48.100;11.776;2022-07-01T15:24:34;95948.31;;;17.11;86.31
34185;BME280;20454;48.100;11.776;2022-07-01T15:27:01;95946.91;;;16.93;88.59
34185;BME280;20454;48.100;11.776;2022-07-01T15:29:27;95943.88;;;16.74;90.93
34185;BME280;20454;48.100;11.776;2022-07-01T15:31:54;95950.75;;;16.53;90.30
34185;BME280;20454;48.100;11.776;2022-07-01T15:34:20;95966.91;;;16.44;90.95
34185;BME280;20454;48.100;11.776;2022-07-01T15:36:47;95960.94;;;16.45;92.45
34185;BME280;20454;48.100;11.776;2022-07-01T15:39:12;95965.97;;;16.52;91.61
34185;BME280;20454;48.100;11.776;2022-07-01T15:41:39;95961.19;;;16.64;92.39
34185;BME280;20454;48.100;11.776;2022-07-01T15:44:06;95975.84;;;16.70;89.62
34185;BME280;20454;48.100;11.776;2022-07-01T15:46:32;95976.66;;;16.70;88.75
34185;BME280;20454;48.100;11.776;2022-07-01T15:48:59;95968.00;;;16.75;89.52
34185;BME280;20454;48.100;11.776;2022-07-01T15:51:25;95968.13;;;16.91;87.50
34185;BME280;20454;48.100;11.776;2022-07-01T15:53:51;95975.16;;;17.21;87.44
34185;BME280;20454;48.100;11.776;2022-07-01T15:56:17;95964.09;;;17.52;85.06